Kennedale's Hourly Summary for Tuesday, April 18, 2017
Hour Temp
(f)
RH
(%)
Solar Rad.
(MJ/m2)
Rainfall
(in)
Wind
(mph)
4/18/2017 12:00 AM 61 95 0 0 0
4/18/2017 1:00 AM 61 96 0 0 0
4/18/2017 2:00 AM 61 97 0 0 0
4/18/2017 3:00 AM 61 98 0 0 0
4/18/2017 4:00 AM 62 99 0 0 0
4/18/2017 5:00 AM 63 99 0 0 0
4/18/2017 6:00 AM 62 100 0 0 0
4/18/2017 7:00 AM 62 99 0.04 0 0
4/18/2017 8:00 AM 63 99 0.35 0 0
4/18/2017 9:00 AM 66 90 1.23 0.01 0
4/18/2017 10:00 AM 70 79 1.77 0 0
4/18/2017 11:00 AM 73 71 2.22 0 0
4/18/2017 12:00 PM 74 70 2.57 0 0
4/18/2017 1:00 PM 75 67 2.11 0 0
4/18/2017 2:00 PM 76 66 2.74 0 0
4/18/2017 3:00 PM 77 63 2.44 0 0
4/18/2017 4:00 PM 77 63 1.66 0 0
4/18/2017 5:00 PM 78 60 1.61 0 0
4/18/2017 6:00 PM 77 61 0.97 0 0
4/18/2017 7:00 PM 75 61 0.27 0 0
4/18/2017 8:00 PM 71 74 0.01 0 0
4/18/2017 9:00 PM 68 82 0 0 0
4/18/2017 10:00 PM 67 87 0 0 0
4/18/2017 11:00 PM 65 92 0 0 0
Data Summary 68 82 19.99 0.01 0.00